sensor_id;sensor_type;location;lat;lon;timestamp;P1;durP1;ratioP1;P2;durP2;ratioP2
38901;SDS011;24661;53.566;9.910;2023-06-10T00:01:12;10.63;;;4.70;;
38901;SDS011;24661;53.566;9.910;2023-06-10T00:03:37;8.90;;;4.90;;
38901;SDS011;24661;53.566;9.910;2023-06-10T00:06:03;7.77;;;4.23;;
38901;SDS011;24661;53.566;9.910;2023-06-10T00:08:30;8.83;;;4.43;;
38901;SDS011;24661;53.566;9.910;2023-06-10T00:10:56;14.13;;;4.50;;
38901;SDS011;24661;53.566;9.910;2023-06-10T00:13:22;6.30;;;3.90;;
38901;SDS011;24661;53.566;9.910;2023-06-10T00:15:47;8.77;;;4.47;;
38901;SDS011;24661;53.566;9.910;2023-06-10T00:18:13;8.47;;;4.30;;
38901;SDS011;24661;53.566;9.910;2023-06-10T00:20:39;8.10;;;3.70;;
38901;SDS011;24661;53.566;9.910;2023-06-10T00:23:04;8.77;;;4.07;;
38901;SDS011;24661;53.566;9.910;2023-06-10T00:25:33;10.13;;;5.27;;
38901;SDS011;24661;53.566;9.910;2023-06-10T00:27:59;10.07;;;4.07;;
38901;SDS011;24661;53.566;9.910;2023-06-10T00:30:24;8.73;;;5.00;;
38901;SDS011;24661;53.566;9.910;2023-06-10T00:32:50;13.90;;;4.53;;
38901;SDS011;24661;53.566;9.910;2023-06-10T00:35:15;7.67;;;4.37;;
38901;SDS011;24661;53.566;9.910;2023-06-10T00:37:41;6.90;;;3.87;;
38901;SDS011;24661;53.566;9.910;2023-06-10T00:40:07;9.50;;;4.17;;
38901;SDS011;24661;53.566;9.910;2023-06-10T00:42:35;7.43;;;3.63;;
38901;SDS011;24661;53.566;9.910;2023-06-10T00:45:01;8.00;;;3.80;;
38901;SDS011;24661;53.566;9.910;2023-06-10T00:47:27;5.77;;;3.47;;
38901;SDS011;24661;53.566;9.910;2023-06-10T00:49:53;6.73;;;3.20;;
38901;SDS011;24661;53.566;9.910;2023-06-10T00:52:19;7.07;;;4.07;;
38901;SDS011;24661;53.566;9.910;2023-06-10T00:54:48;6.00;;;3.13;;
38901;SDS011;24661;53.566;9.910;2023-06-10T00:57:14;6.03;;;3.17;;
38901;SDS011;24661;53.566;9.910;2023-06-10T00:59:40;8.13;;;3.10;;
38901;SDS011;24661;53.566;9.910;2023-06-10T01:02:08;8.37;;;3.50;;
38901;SDS011;24661;53.566;9.910;2023-06-10T01:04:34;6.47;;;3.43;;
38901;SDS011;24661;53.566;9.910;2023-06-10T01:07:09;7.13;;;3.30;;
38901;SDS011;24661;53.566;9.910;2023-06-10T01:09:45;9.73;;;3.33;;
38901;SDS011;24661;53.566;9.910;2023-06-10T01:15:03;7.87;;;2.83;;
38901;SDS011;24661;53.566;9.910;2023-06-10T01:17:29;7.07;;;3.23;;
38901;SDS011;24661;53.566;9.910;2023-06-10T01:19:58;10.23;;;3.03;;
38901;SDS011;24661;53.566;9.910;2023-06-10T01:22:24;8.77;;;4.27;;
38901;SDS011;24661;53.566;9.910;2023-06-10T01:24:53;11.00;;;3.57;;
38901;SDS011;24661;53.566;9.910;2023-06-10T01:27:23;6.93;;;3.20;;
38901;SDS011;24661;53.566;9.910;2023-06-10T01:29:59;7.97;;;3.23;;
38901;SDS011;24661;53.566;9.910;2023-06-10T01:32:34;7.37;;;3.83;;
38901;SDS011;24661;53.566;9.910;2023-06-10T01:35:02;7.63;;;3.33;;
38901;SDS011;24661;53.566;9.910;2023-06-10T01:37:30;6.17;;;3.27;;
38901;SDS011;24661;53.566;9.910;2023-06-10T01:39:57;13.17;;;3.47;;
38901;SDS011;24661;53.566;9.910;2023-06-10T01:42:24;7.50;;;3.87;;
38901;SDS011;24661;53.566;9.910;2023-06-10T01:44:50;8.77;;;3.00;;
38901;SDS011;24661;53.566;9.910;2023-06-10T01:47:16;5.10;;;2.87;;
38901;SDS011;24661;53.566;9.910;2023-06-10T01:49:42;8.87;;;3.07;;
38901;SDS011;24661;53.566;9.910;2023-06-10T01:52:08;8.93;;;3.33;;
38901;SDS011;24661;53.566;9.910;2023-06-10T01:54:33;8.10;;;3.13;;
38901;SDS011;24661;53.566;9.910;2023-06-10T01:57:02;10.70;;;3.77;;
38901;SDS011;24661;53.566;9.910;2023-06-10T01:59:27;10.50;;;3.30;;
38901;SDS011;24661;53.566;9.910;2023-06-10T02:01:53;9.83;;;3.57;;
38901;SDS011;24661;53.566;9.910;2023-06-10T02:04:18;7.00;;;2.70;;
38901;SDS011;24661;53.566;9.910;2023-06-10T02:06:44;8.17;;;2.47;;
38901;SDS011;24661;53.566;9.910;2023-06-10T02:09:10;10.73;;;3.00;;
38901;SDS011;24661;53.566;9.910;2023-06-10T02:11:36;5.57;;;3.07;;
38901;SDS011;24661;53.566;9.910;2023-06-10T02:14:01;10.77;;;2.67;;
38901;SDS011;24661;53.566;9.910;2023-06-10T02:16:28;13.13;;;2.80;;
38901;SDS011;24661;53.566;9.910;2023-06-10T02:18:53;6.50;;;3.10;;
38901;SDS011;24661;53.566;9.910;2023-06-10T02:21:19;6.17;;;2.37;;
38901;SDS011;24661;53.566;9.910;2023-06-10T02:23:45;6.53;;;1.93;;
38901;SDS011;24661;53.566;9.910;2023-06-10T02:26:10;6.97;;;2.50;;
38901;SDS011;24661;53.566;9.910;2023-06-10T02:28:36;5.83;;;2.53;;
38901;SDS011;24661;53.566;9.910;2023-06-10T02:31:02;11.20;;;3.23;;
38901;SDS011;24661;53.566;9.910;2023-06-10T02:33:27;9.63;;;2.73;;
38901;SDS011;24661;53.566;9.910;2023-06-10T02:35:53;6.30;;;2.70;;
38901;SDS011;24661;53.566;9.910;2023-06-10T02:38:18;4.40;;;2.30;;
38901;SDS011;24661;53.566;9.910;2023-06-10T02:40:44;4.80;;;2.20;;
38901;SDS011;24661;53.566;9.910;2023-06-10T02:43:10;10.77;;;3.13;;
38901;SDS011;24661;53.566;9.910;2023-06-10T02:45:35;6.20;;;2.67;;
38901;SDS011;24661;53.566;9.910;2023-06-10T02:48:01;8.33;;;2.17;;
38901;SDS011;24661;53.566;9.910;2023-06-10T02:50:26;6.53;;;2.63;;
38901;SDS011;24661;53.566;9.910;2023-06-10T02:52:52;5.23;;;2.63;;
38901;SDS011;24661;53.566;9.910;2023-06-10T02:55:18;7.27;;;2.60;;
38901;SDS011;24661;53.566;9.910;2023-06-10T02:57:44;6.67;;;1.80;;
38901;SDS011;24661;53.566;9.910;2023-06-10T03:00:10;7.37;;;2.50;;
38901;SDS011;24661;53.566;9.910;2023-06-10T03:02:36;10.70;;;3.27;;
38901;SDS011;24661;53.566;9.910;2023-06-10T03:05:03;4.40;;;2.63;;
38901;SDS011;24661;53.566;9.910;2023-06-10T03:07:30;8.67;;;2.60;;
38901;SDS011;24661;53.566;9.910;2023-06-10T03:09:56;9.37;;;2.33;;
38901;SDS011;24661;53.566;9.910;2023-06-10T03:12:21;5.40;;;2.37;;
38901;SDS011;24661;53.566;9.910;2023-06-10T03:14:47;9.73;;;2.57;;
38901;SDS011;24661;53.566;9.910;2023-06-10T03:17:12;8.07;;;2.50;;
38901;SDS011;24661;53.566;9.910;2023-06-10T03:19:38;6.30;;;2.20;;
38901;SDS011;24661;53.566;9.910;2023-06-10T03:22:08;4.63;;;2.20;;
38901;SDS011;24661;53.566;9.910;2023-06-10T03:24:35;8.57;;;3.17;;
38901;SDS011;24661;53.566;9.910;2023-06-10T03:27:01;3.83;;;2.40;;
38901;SDS011;24661;53.566;9.910;2023-06-10T03:29:27;5.43;;;2.00;;
38901;SDS011;24661;53.566;9.910;2023-06-10T03:31:52;6.70;;;2.67;;
38901;SDS011;24661;53.566;9.910;2023-06-10T03:34:18;7.70;;;2.60;;
38901;SDS011;24661;53.566;9.910;2023-06-10T03:36:43;4.87;;;2.20;;
38901;SDS011;24661;53.566;9.910;2023-06-10T03:39:10;7.80;;;2.60;;
38901;SDS011;24661;53.566;9.910;2023-06-10T03:41:35;6.57;;;2.20;;
38901;SDS011;24661;53.566;9.910;2023-06-10T03:44:01;5.80;;;1.80;;
38901;SDS011;24661;53.566;9.910;2023-06-10T03:46:27;10.67;;;2.40;;
38901;SDS011;24661;53.566;9.910;2023-06-10T03:48:52;5.00;;;1.83;;
38901;SDS011;24661;53.566;9.910;2023-06-10T03:51:18;6.37;;;2.27;;
38901;SDS011;24661;53.566;9.910;2023-06-10T03:53:44;4.00;;;1.63;;
38901;SDS011;24661;53.566;9.910;2023-06-10T03:56:09;6.37;;;2.40;;
38901;SDS011;24661;53.566;9.910;2023-06-10T03:58:35;6.23;;;2.30;;
38901;SDS011;24661;53.566;9.910;2023-06-10T04:01:00;5.40;;;2.20;;
38901;SDS011;24661;53.566;9.910;2023-06-10T04:03:26;5.50;;;2.13;;
38901;SDS011;24661;53.566;9.910;2023-06-10T04:05:52;7.17;;;1.90;;
38901;SDS011;24661;53.566;9.910;2023-06-10T04:08:17;7.23;;;2.47;;
38901;SDS011;24661;53.566;9.910;2023-06-10T04:10:43;4.97;;;2.03;;
38901;SDS011;24661;53.566;9.910;2023-06-10T04:13:09;6.63;;;2.50;;
38901;SDS011;24661;53.566;9.910;2023-06-10T04:15:34;10.83;;;2.27;;
38901;SDS011;24661;53.566;9.910;2023-06-10T04:18:00;5.17;;;2.37;;
38901;SDS011;24661;53.566;9.910;2023-06-10T04:20:28;4.93;;;2.23;;
38901;SDS011;24661;53.566;9.910;2023-06-10T04:22:54;7.67;;;2.73;;
38901;SDS011;24661;53.566;9.910;2023-06-10T04:25:19;7.13;;;2.20;;
38901;SDS011;24661;53.566;9.910;2023-06-10T04:27:45;6.87;;;2.13;;
38901;SDS011;24661;53.566;9.910;2023-06-10T04:30:11;4.10;;;1.90;;
38901;SDS011;24661;53.566;9.910;2023-06-10T04:32:37;4.60;;;1.70;;
38901;SDS011;24661;53.566;9.910;2023-06-10T04:35:03;3.90;;;1.93;;
38901;SDS011;24661;53.566;9.910;2023-06-10T04:37:30;6.93;;;1.80;;
38901;SDS011;24661;53.566;9.910;2023-06-10T04:39:55;5.27;;;1.80;;
38901;SDS011;24661;53.566;9.910;2023-06-10T04:42:22;9.07;;;2.30;;
38901;SDS011;24661;53.566;9.910;2023-06-10T04:44:47;3.80;;;1.87;;
38901;SDS011;24661;53.566;9.910;2023-06-10T04:47:13;11.53;;;2.40;;
38901;SDS011;24661;53.566;9.910;2023-06-10T04:49:38;8.00;;;2.00;;
38901;SDS011;24661;53.566;9.910;2023-06-10T04:52:04;4.33;;;2.00;;
38901;SDS011;24661;53.566;9.910;2023-06-10T04:54:30;7.97;;;2.13;;
38901;SDS011;24661;53.566;9.910;2023-06-10T04:56:56;6.03;;;2.13;;
38901;SDS011;24661;53.566;9.910;2023-06-10T04:59:22;3.73;;;1.93;;
38901;SDS011;24661;53.566;9.910;2023-06-10T05:01:48;9.90;;;2.13;;
38901;SDS011;24661;53.566;9.910;2023-06-10T05:04:13;9.10;;;2.53;;
38901;SDS011;24661;53.566;9.910;2023-06-10T05:06:39;9.70;;;2.37;;
38901;SDS011;24661;53.566;9.910;2023-06-10T05:09:04;7.20;;;2.17;;
38901;SDS011;24661;53.566;9.910;2023-06-10T05:11:30;7.97;;;1.90;;
38901;SDS011;24661;53.566;9.910;2023-06-10T05:13:55;9.90;;;2.33;;
38901;SDS011;24661;53.566;9.910;2023-06-10T05:16:21;9.73;;;2.27;;
38901;SDS011;24661;53.566;9.910;2023-06-10T05:18:47;8.30;;;2.50;;
38901;SDS011;24661;53.566;9.910;2023-06-10T05:21:12;8.30;;;2.00;;
38901;SDS011;24661;53.566;9.910;2023-06-10T05:23:38;5.40;;;2.30;;
38901;SDS011;24661;53.566;9.910;2023-06-10T05:26:04;8.83;;;2.40;;
38901;SDS011;24661;53.566;9.910;2023-06-10T05:28:29;8.07;;;2.63;;
38901;SDS011;24661;53.566;9.910;2023-06-10T05:30:55;8.37;;;2.13;;
38901;SDS011;24661;53.566;9.910;2023-06-10T05:33:20;6.10;;;2.10;;
38901;SDS011;24661;53.566;9.910;2023-06-10T05:35:46;5.53;;;2.40;;
38901;SDS011;24661;53.566;9.910;2023-06-10T05:38:11;10.03;;;2.60;;
38901;SDS011;24661;53.566;9.910;2023-06-10T05:40:37;4.23;;;2.00;;
38901;SDS011;24661;53.566;9.910;2023-06-10T05:43:02;7.17;;;2.07;;
38901;SDS011;24661;53.566;9.910;2023-06-10T05:45:28;9.60;;;2.03;;
38901;SDS011;24661;53.566;9.910;2023-06-10T05:47:53;6.63;;;2.00;;
38901;SDS011;24661;53.566;9.910;2023-06-10T05:50:20;7.53;;;2.20;;
38901;SDS011;24661;53.566;9.910;2023-06-10T05:52:46;6.47;;;2.30;;
38901;SDS011;24661;53.566;9.910;2023-06-10T05:55:11;9.53;;;2.07;;
38901;SDS011;24661;53.566;9.910;2023-06-10T05:57:37;8.07;;;1.93;;
38901;SDS011;24661;53.566;9.910;2023-06-10T06:00:03;8.30;;;2.23;;
38901;SDS011;24661;53.566;9.910;2023-06-10T06:02:29;6.83;;;2.43;;
38901;SDS011;24661;53.566;9.910;2023-06-10T06:04:55;4.93;;;1.90;;
38901;SDS011;24661;53.566;9.910;2023-06-10T06:07:20;6.00;;;1.93;;
38901;SDS011;24661;53.566;9.910;2023-06-10T06:09:46;6.43;;;2.07;;
38901;SDS011;24661;53.566;9.910;2023-06-10T06:12:12;8.90;;;2.13;;
38901;SDS011;24661;53.566;9.910;2023-06-10T06:14:38;7.77;;;1.90;;
38901;SDS011;24661;53.566;9.910;2023-06-10T06:17:04;6.23;;;2.53;;
38901;SDS011;24661;53.566;9.910;2023-06-10T06:19:30;6.07;;;2.17;;
38901;SDS011;24661;53.566;9.910;2023-06-10T06:21:56;6.80;;;2.10;;
38901;SDS011;24661;53.566;9.910;2023-06-10T06:24:22;8.87;;;3.10;;
38901;SDS011;24661;53.566;9.910;2023-06-10T06:26:47;4.43;;;2.80;;
38901;SDS011;24661;53.566;9.910;2023-06-10T06:29:13;5.23;;;2.20;;
38901;SDS011;24661;53.566;9.910;2023-06-10T06:31:38;3.27;;;1.83;;
38901;SDS011;24661;53.566;9.910;2023-06-10T06:34:04;5.23;;;2.30;;
38901;SDS011;24661;53.566;9.910;2023-06-10T06:36:29;10.93;;;2.77;;
38901;SDS011;24661;53.566;9.910;2023-06-10T06:38:55;6.97;;;2.30;;
38901;SDS011;24661;53.566;9.910;2023-06-10T06:41:20;5.90;;;2.33;;
38901;SDS011;24661;53.566;9.910;2023-06-10T06:43:46;9.53;;;3.13;;
38901;SDS011;24661;53.566;9.910;2023-06-10T06:46:12;9.13;;;2.63;;
38901;SDS011;24661;53.566;9.910;2023-06-10T06:48:38;7.83;;;2.50;;
38901;SDS011;24661;53.566;9.910;2023-06-10T06:51:03;6.13;;;3.20;;
38901;SDS011;24661;53.566;9.910;2023-06-10T06:53:29;14.47;;;7.03;;
38901;SDS011;24661;53.566;9.910;2023-06-10T06:55:54;8.30;;;2.67;;
38901;SDS011;24661;53.566;9.910;2023-06-10T06:58:20;8.27;;;2.83;;
38901;SDS011;24661;53.566;9.910;2023-06-10T07:00:45;8.87;;;2.77;;
38901;SDS011;24661;53.566;9.910;2023-06-10T07:03:11;6.07;;;2.33;;
38901;SDS011;24661;53.566;9.910;2023-06-10T07:05:37;10.60;;;3.67;;
38901;SDS011;24661;53.566;9.910;2023-06-10T07:08:03;10.43;;;6.00;;
38901;SDS011;24661;53.566;9.910;2023-06-10T07:10:29;10.87;;;4.77;;
38901;SDS011;24661;53.566;9.910;2023-06-10T07:12:55;4.90;;;2.77;;
38901;SDS011;24661;53.566;9.910;2023-06-10T07:15:20;7.10;;;2.47;;
38901;SDS011;24661;53.566;9.910;2023-06-10T07:17:46;7.00;;;2.40;;
38901;SDS011;24661;53.566;9.910;2023-06-10T07:20:11;7.03;;;2.40;;
38901;SDS011;24661;53.566;9.910;2023-06-10T07:22:38;7.20;;;2.50;;
38901;SDS011;24661;53.566;9.910;2023-06-10T07:25:04;6.07;;;2.60;;
38901;SDS011;24661;53.566;9.910;2023-06-10T07:27:30;12.87;;;2.67;;
38901;SDS011;24661;53.566;9.910;2023-06-10T07:29:56;10.20;;;2.90;;
38901;SDS011;24661;53.566;9.910;2023-06-10T07:32:22;7.27;;;2.77;;
38901;SDS011;24661;53.566;9.910;2023-06-10T07:34:48;7.90;;;2.20;;
38901;SDS011;24661;53.566;9.910;2023-06-10T07:37:14;6.37;;;2.67;;
38901;SDS011;24661;53.566;9.910;2023-06-10T07:39:40;5.53;;;2.37;;
38901;SDS011;24661;53.566;9.910;2023-06-10T07:42:06;6.67;;;2.40;;
38901;SDS011;24661;53.566;9.910;2023-06-10T07:44:31;7.70;;;2.77;;
38901;SDS011;24661;53.566;9.910;2023-06-10T07:46:57;10.23;;;2.63;;
38901;SDS011;24661;53.566;9.910;2023-06-10T07:49:23;11.83;;;6.30;;
38901;SDS011;24661;53.566;9.910;2023-06-10T07:51:49;7.53;;;3.67;;
38901;SDS011;24661;53.566;9.910;2023-06-10T07:54:15;4.63;;;2.37;;
38901;SDS011;24661;53.566;9.910;2023-06-10T07:56:41;8.97;;;2.93;;
38901;SDS011;24661;53.566;9.910;2023-06-10T07:59:06;7.07;;;2.47;;
38901;SDS011;24661;53.566;9.910;2023-06-10T08:01:32;7.07;;;2.67;;
38901;SDS011;24661;53.566;9.910;2023-06-10T08:03:58;9.43;;;2.90;;
38901;SDS011;24661;53.566;9.910;2023-06-10T08:06:23;4.03;;;2.07;;
38901;SDS011;24661;53.566;9.910;2023-06-10T08:08:49;7.57;;;2.97;;
38901;SDS011;24661;53.566;9.910;2023-06-10T08:11:14;7.53;;;4.40;;
38901;SDS011;24661;53.566;9.910;2023-06-10T08:13:40;8.03;;;3.70;;
38901;SDS011;24661;53.566;9.910;2023-06-10T08:16:05;6.57;;;2.83;;
38901;SDS011;24661;53.566;9.910;2023-06-10T08:18:31;6.20;;;2.67;;
38901;SDS011;24661;53.566;9.910;2023-06-10T08:20:57;5.90;;;2.53;;
38901;SDS011;24661;53.566;9.910;2023-06-10T08:23:22;5.03;;;2.70;;
38901;SDS011;24661;53.566;9.910;2023-06-10T08:25:48;6.40;;;2.60;;
38901;SDS011;24661;53.566;9.910;2023-06-10T08:28:13;7.73;;;2.53;;
38901;SDS011;24661;53.566;9.910;2023-06-10T08:30:39;5.90;;;2.87;;
38901;SDS011;24661;53.566;9.910;2023-06-10T08:33:05;7.70;;;2.90;;
38901;SDS011;24661;53.566;9.910;2023-06-10T08:35:30;4.87;;;2.80;;
38901;SDS011;24661;53.566;9.910;2023-06-10T08:37:56;9.77;;;3.47;;
38901;SDS011;24661;53.566;9.910;2023-06-10T08:40:21;5.53;;;2.97;;
38901;SDS011;24661;53.566;9.910;2023-06-10T08:45:27;7.23;;;2.93;;
38901;SDS011;24661;53.566;9.910;2023-06-10T08:48:00;8.37;;;2.87;;
38901;SDS011;24661;53.566;9.910;2023-06-10T08:50:36;5.47;;;2.87;;
38901;SDS011;24661;53.566;9.910;2023-06-10T08:53:04;9.33;;;3.20;;
38901;SDS011;24661;53.566;9.910;2023-06-10T08:55:41;7.43;;;2.50;;
38901;SDS011;24661;53.566;9.910;2023-06-10T08:58:08;6.93;;;3.20;;
38901;SDS011;24661;53.566;9.910;2023-06-10T09:00:35;4.93;;;3.20;;
38901;SDS011;24661;53.566;9.910;2023-06-10T09:03:01;6.50;;;2.70;;
38901;SDS011;24661;53.566;9.910;2023-06-10T09:05:28;8.57;;;4.37;;
38901;SDS011;24661;53.566;9.910;2023-06-10T09:07:54;5.77;;;3.03;;
38901;SDS011;24661;53.566;9.910;2023-06-10T09:10:22;7.07;;;2.93;;
38901;SDS011;24661;53.566;9.910;2023-06-10T09:12:47;5.73;;;2.77;;
38901;SDS011;24661;53.566;9.910;2023-06-10T09:15:13;11.77;;;2.73;;
38901;SDS011;24661;53.566;9.910;2023-06-10T09:17:39;12.50;;;3.33;;
38901;SDS011;24661;53.566;9.910;2023-06-10T09:20:06;13.27;;;3.10;;
38901;SDS011;24661;53.566;9.910;2023-06-10T09:22:33;5.30;;;2.80;;
38901;SDS011;24661;53.566;9.910;2023-06-10T09:25:05;7.33;;;2.77;;
38901;SDS011;24661;53.566;9.910;2023-06-10T09:27:37;12.43;;;3.67;;
38901;SDS011;24661;53.566;9.910;2023-06-10T09:30:33;6.73;;;3.10;;
38901;SDS011;24661;53.566;9.910;2023-06-10T09:33:01;6.33;;;2.77;;
38901;SDS011;24661;53.566;9.910;2023-06-10T09:35:34;10.17;;;2.70;;
38901;SDS011;24661;53.566;9.910;2023-06-10T09:38:00;5.47;;;2.77;;
38901;SDS011;24661;53.566;9.910;2023-06-10T09:40:27;9.80;;;3.17;;
38901;SDS011;24661;53.566;9.910;2023-06-10T09:42:57;12.67;;;3.33;;
38901;SDS011;24661;53.566;9.910;2023-06-10T09:45:28;5.10;;;2.47;;
38901;SDS011;24661;53.566;9.910;2023-06-10T09:47:58;7.23;;;2.63;;
38901;SDS011;24661;53.566;9.910;2023-06-10T09:50:25;7.27;;;2.90;;
38901;SDS011;24661;53.566;9.910;2023-06-10T09:52:50;6.93;;;3.33;;
38901;SDS011;24661;53.566;9.910;2023-06-10T09:55:17;6.20;;;3.27;;
38901;SDS011;24661;53.566;9.910;2023-06-10T09:57:42;11.73;;;2.90;;
38901;SDS011;24661;53.566;9.910;2023-06-10T10:00:12;9.40;;;3.17;;
38901;SDS011;24661;53.566;9.910;2023-06-10T10:05:15;9.13;;;3.03;;
38901;SDS011;24661;53.566;9.910;2023-06-10T10:07:41;5.53;;;3.17;;
38901;SDS011;24661;53.566;9.910;2023-06-10T10:10:08;8.00;;;2.70;;
38901;SDS011;24661;53.566;9.910;2023-06-10T10:12:35;3.77;;;2.67;;
38901;SDS011;24661;53.566;9.910;2023-06-10T10:15:03;8.97;;;3.17;;
38901;SDS011;24661;53.566;9.910;2023-06-10T10:17:32;4.37;;;2.93;;
38901;SDS011;24661;53.566;9.910;2023-06-10T10:20:05;9.97;;;3.57;;
38901;SDS011;24661;53.566;9.910;2023-06-10T10:22:37;8.67;;;3.40;;
38901;SDS011;24661;53.566;9.910;2023-06-10T10:28:09;10.30;;;3.93;;
38901;SDS011;24661;53.566;9.910;2023-06-10T10:30:39;9.63;;;5.80;;
38901;SDS011;24661;53.566;9.910;2023-06-10T10:33:12;7.60;;;3.30;;
38901;SDS011;24661;53.566;9.910;2023-06-10T10:35:41;11.47;;;5.80;;
38901;SDS011;24661;53.566;9.910;2023-06-10T10:38:08;11.07;;;3.33;;
38901;SDS011;24661;53.566;9.910;2023-06-10T10:40:34;4.70;;;3.20;;
38901;SDS011;24661;53.566;9.910;2023-06-10T10:43:00;7.30;;;3.20;;
38901;SDS011;24661;53.566;9.910;2023-06-10T10:45:28;9.20;;;3.73;;
38901;SDS011;24661;53.566;9.910;2023-06-10T10:47:54;6.87;;;2.73;;
38901;SDS011;24661;53.566;9.910;2023-06-10T10:50:20;6.13;;;2.67;;
38901;SDS011;24661;53.566;9.910;2023-06-10T10:52:56;7.17;;;3.27;;
38901;SDS011;24661;53.566;9.910;2023-06-10T10:55:25;5.77;;;3.30;;
38901;SDS011;24661;53.566;9.910;2023-06-10T10:58:07;5.00;;;2.73;;
38901;SDS011;24661;53.566;9.910;2023-06-10T11:00:43;5.40;;;3.30;;
38901;SDS011;24661;53.566;9.910;2023-06-10T11:03:12;6.10;;;3.30;;
38901;SDS011;24661;53.566;9.910;2023-06-10T11:05:40;8.10;;;3.97;;
38901;SDS011;24661;53.566;9.910;2023-06-10T11:08:07;6.63;;;3.17;;
38901;SDS011;24661;53.566;9.910;2023-06-10T11:13:02;5.93;;;3.40;;
38901;SDS011;24661;53.566;9.910;2023-06-10T11:15:37;7.03;;;3.40;;
38901;SDS011;24661;53.566;9.910;2023-06-10T11:26:09;6.53;;;3.47;;
38901;SDS011;24661;53.566;9.910;2023-06-10T11:31:30;6.27;;;3.50;;
38901;SDS011;24661;53.566;9.910;2023-06-10T11:34:03;6.47;;;3.67;;
38901;SDS011;24661;53.566;9.910;2023-06-10T11:36:31;8.40;;;3.40;;
38901;SDS011;24661;53.566;9.910;2023-06-10T11:39:07;7.43;;;3.60;;
38901;SDS011;24661;53.566;9.910;2023-06-10T11:41:34;7.93;;;3.53;;
38901;SDS011;24661;53.566;9.910;2023-06-10T11:44:02;9.30;;;3.70;;
38901;SDS011;24661;53.566;9.910;2023-06-10T11:46:29;8.07;;;3.60;;
38901;SDS011;24661;53.566;9.910;2023-06-10T11:48:55;6.80;;;3.30;;
38901;SDS011;24661;53.566;9.910;2023-06-10T11:51:25;7.10;;;3.53;;
38901;SDS011;24661;53.566;9.910;2023-06-10T11:53:52;6.23;;;3.60;;
38901;SDS011;24661;53.566;9.910;2023-06-10T11:56:25;8.53;;;3.50;;
38901;SDS011;24661;53.566;9.910;2023-06-10T11:59:09;8.87;;;3.73;;
38901;SDS011;24661;53.566;9.910;2023-06-10T12:01:36;9.73;;;3.47;;
38901;SDS011;24661;53.566;9.910;2023-06-10T12:04:03;6.13;;;3.43;;
38901;SDS011;24661;53.566;9.910;2023-06-10T12:09:22;6.77;;;3.63;;
38901;SDS011;24661;53.566;9.910;2023-06-10T12:11:51;9.37;;;3.50;;
38901;SDS011;24661;53.566;9.910;2023-06-10T12:14:47;9.63;;;4.00;;
38901;SDS011;24661;53.566;9.910;2023-06-10T12:17:35;8.73;;;4.13;;
38901;SDS011;24661;53.566;9.910;2023-06-10T12:20:03;6.60;;;4.20;;
38901;SDS011;24661;53.566;9.910;2023-06-10T12:22:36;6.93;;;4.17;;
38901;SDS011;24661;53.566;9.910;2023-06-10T12:25:07;9.00;;;4.30;;
38901;SDS011;24661;53.566;9.910;2023-06-10T12:27:34;5.67;;;4.00;;
38901;SDS011;24661;53.566;9.910;2023-06-10T12:30:00;6.97;;;3.67;;
38901;SDS011;24661;53.566;9.910;2023-06-10T12:32:42;8.50;;;3.97;;
38901;SDS011;24661;53.566;9.910;2023-06-10T12:35:11;8.30;;;4.23;;
38901;SDS011;24661;53.566;9.910;2023-06-10T12:37:38;4.77;;;3.60;;
38901;SDS011;24661;53.566;9.910;2023-06-10T12:40:04;6.23;;;4.27;;
38901;SDS011;24661;53.566;9.910;2023-06-10T12:42:31;7.80;;;4.00;;
38901;SDS011;24661;53.566;9.910;2023-06-10T12:45:00;6.20;;;4.00;;
38901;SDS011;24661;53.566;9.910;2023-06-10T12:47:29;6.00;;;3.97;;
38901;SDS011;24661;53.566;9.910;2023-06-10T12:50:06;7.70;;;4.07;;
38901;SDS011;24661;53.566;9.910;2023-06-10T12:52:32;7.83;;;5.17;;
38901;SDS011;24661;53.566;9.910;2023-06-10T12:54:58;7.33;;;4.77;;
38901;SDS011;24661;53.566;9.910;2023-06-10T12:57:25;8.37;;;4.17;;
38901;SDS011;24661;53.566;9.910;2023-06-10T12:59:51;11.50;;;4.73;;
38901;SDS011;24661;53.566;9.910;2023-06-10T13:02:22;7.67;;;4.63;;
38901;SDS011;24661;53.566;9.910;2023-06-10T13:04:49;8.17;;;4.13;;
38901;SDS011;24661;53.566;9.910;2023-06-10T13:07:15;12.10;;;4.67;;
38901;SDS011;24661;53.566;9.910;2023-06-10T13:09:42;10.13;;;3.97;;
38901;SDS011;24661;53.566;9.910;2023-06-10T13:12:08;7.30;;;4.03;;
38901;SDS011;24661;53.566;9.910;2023-06-10T13:14:34;7.23;;;4.27;;
38901;SDS011;24661;53.566;9.910;2023-06-10T13:17:02;8.53;;;4.87;;
38901;SDS011;24661;53.566;9.910;2023-06-10T13:19:28;8.17;;;4.23;;
38901;SDS011;24661;53.566;9.910;2023-06-10T13:21:54;8.30;;;4.53;;
38901;SDS011;24661;53.566;9.910;2023-06-10T13:24:20;8.67;;;4.23;;
38901;SDS011;24661;53.566;9.910;2023-06-10T13:26:45;13.43;;;6.00;;
38901;SDS011;24661;53.566;9.910;2023-06-10T13:29:11;13.00;;;8.17;;
38901;SDS011;24661;53.566;9.910;2023-06-10T13:31:39;7.83;;;4.73;;
38901;SDS011;24661;53.566;9.910;2023-06-10T13:34:05;7.10;;;4.57;;
38901;SDS011;24661;53.566;9.910;2023-06-10T13:36:31;8.27;;;3.97;;
38901;SDS011;24661;53.566;9.910;2023-06-10T13:38:57;8.17;;;4.00;;
38901;SDS011;24661;53.566;9.910;2023-06-10T13:41:22;5.93;;;3.93;;
38901;SDS011;24661;53.566;9.910;2023-06-10T13:43:48;7.73;;;3.53;;
38901;SDS011;24661;53.566;9.910;2023-06-10T13:46:14;7.20;;;3.50;;
38901;SDS011;24661;53.566;9.910;2023-06-10T13:48:39;6.17;;;4.10;;
38901;SDS011;24661;53.566;9.910;2023-06-10T13:51:05;8.80;;;3.90;;
38901;SDS011;24661;53.566;9.910;2023-06-10T13:53:31;8.63;;;5.10;;
38901;SDS011;24661;53.566;9.910;2023-06-10T13:55:57;9.77;;;4.20;;
38901;SDS011;24661;53.566;9.910;2023-06-10T13:58:23;8.43;;;4.20;;
38901;SDS011;24661;53.566;9.910;2023-06-10T14:00:48;10.90;;;4.20;;
38901;SDS011;24661;53.566;9.910;2023-06-10T14:03:14;6.17;;;2.90;;
38901;SDS011;24661;53.566;9.910;2023-06-10T14:05:40;5.63;;;3.40;;
38901;SDS011;24661;53.566;9.910;2023-06-10T14:08:05;10.90;;;3.80;;
38901;SDS011;24661;53.566;9.910;2023-06-10T14:10:32;9.53;;;3.70;;
38901;SDS011;24661;53.566;9.910;2023-06-10T14:12:58;8.33;;;3.53;;
38901;SDS011;24661;53.566;9.910;2023-06-10T14:15:23;6.57;;;3.00;;
38901;SDS011;24661;53.566;9.910;2023-06-10T14:17:49;10.63;;;3.67;;
38901;SDS011;24661;53.566;9.910;2023-06-10T14:20:15;7.87;;;4.00;;
38901;SDS011;24661;53.566;9.910;2023-06-10T14:22:41;9.67;;;3.73;;
38901;SDS011;24661;53.566;9.910;2023-06-10T14:25:06;7.07;;;3.80;;
38901;SDS011;24661;53.566;9.910;2023-06-10T14:27:32;9.00;;;3.97;;
38901;SDS011;24661;53.566;9.910;2023-06-10T14:29:58;5.57;;;3.20;;
38901;SDS011;24661;53.566;9.910;2023-06-10T14:32:23;11.43;;;3.43;;
38901;SDS011;24661;53.566;9.910;2023-06-10T14:34:49;6.47;;;3.00;;
38901;SDS011;24661;53.566;9.910;2023-06-10T14:37:14;7.30;;;3.47;;
38901;SDS011;24661;53.566;9.910;2023-06-10T14:39:40;6.93;;;4.00;;
38901;SDS011;24661;53.566;9.910;2023-06-10T14:42:06;8.90;;;4.17;;
38901;SDS011;24661;53.566;9.910;2023-06-10T14:44:31;11.27;;;3.70;;
38901;SDS011;24661;53.566;9.910;2023-06-10T14:46:58;10.77;;;3.47;;
38901;SDS011;24661;53.566;9.910;2023-06-10T14:49:24;9.30;;;3.30;;
38901;SDS011;24661;53.566;9.910;2023-06-10T14:51:49;10.13;;;3.70;;
38901;SDS011;24661;53.566;9.910;2023-06-10T14:54:15;10.33;;;3.90;;
38901;SDS011;24661;53.566;9.910;2023-06-10T14:56:41;11.13;;;3.20;;
38901;SDS011;24661;53.566;9.910;2023-06-10T14:59:06;8.83;;;3.27;;
38901;SDS011;24661;53.566;9.910;2023-06-10T15:01:32;7.27;;;3.70;;
38901;SDS011;24661;53.566;9.910;2023-06-10T15:03:57;9.53;;;3.87;;
38901;SDS011;24661;53.566;9.910;2023-06-10T15:06:23;6.60;;;3.40;;
38901;SDS011;24661;53.566;9.910;2023-06-10T15:08:49;8.57;;;3.50;;
38901;SDS011;24661;53.566;9.910;2023-06-10T15:11:15;6.87;;;3.93;;